createdAt,value
2023-04-03T00:00:22.072Z,7.06
2023-04-03T00:03:11.515Z,7.09
2023-04-03T00:05:42.763Z,7.09
2023-04-03T00:08:13.733Z,7.10
2023-04-03T00:10:43.795Z,7.10
2023-04-03T00:13:15.121Z,7.11
2023-04-03T00:15:45.092Z,7.10
2023-04-03T00:18:14.604Z,7.05
2023-04-03T00:20:44.394Z,7.03
2023-04-03T00:23:13.682Z,7.01
2023-04-03T00:25:44.482Z,6.98
2023-04-03T00:28:14.548Z,6.96
2023-04-03T00:30:44.761Z,6.95
2023-04-03T00:33:15.213Z,6.95
2023-04-03T00:35:46.683Z,6.95
2023-04-03T00:38:17.226Z,6.95
2023-04-03T00:40:50.330Z,6.95
2023-04-03T00:43:27.048Z,6.93
2023-04-03T00:46:02.058Z,6.89
2023-04-03T00:48:41.917Z,6.87
2023-04-03T00:51:26.943Z,6.84
2023-04-03T00:54:04.617Z,6.81
2023-04-03T00:56:38.675Z,6.80
2023-04-03T00:59:24.633Z,6.76
2023-04-03T01:01:57.833Z,6.75
2023-04-03T01:04:33.095Z,6.73
2023-04-03T01:07:20.170Z,6.70
2023-04-03T01:09:55.006Z,6.67
2023-04-03T01:12:34.594Z,6.65
2023-04-03T01:15:11.745Z,6.62
2023-04-03T01:17:50.738Z,6.58
2023-04-03T01:20:32.518Z,6.54
2023-04-03T01:23:18.697Z,6.48
2023-04-03T01:25:56.177Z,6.43
2023-04-03T01:28:35.858Z,6.39
2023-04-03T01:31:29.476Z,6.38
2023-04-03T01:33:59.274Z,6.37
2023-04-03T01:36:32.761Z,6.37
2023-04-03T01:39:02.433Z,6.36
2023-04-03T01:41:32.533Z,6.38
2023-04-03T01:44:12.732Z,6.38
2023-04-03T01:46:43.866Z,6.38
2023-04-03T01:49:13.946Z,6.35
2023-04-03T01:51:43.796Z,6.33
2023-04-03T01:54:13.654Z,6.30
2023-04-03T01:56:43.495Z,6.26
2023-04-03T01:59:13.775Z,6.23
2023-04-03T02:01:46.678Z,6.19
2023-04-03T02:04:16.467Z,6.13
2023-04-03T02:06:45.988Z,6.07
2023-04-03T02:09:17.036Z,6.05
2023-04-03T02:11:46.775Z,6.03
2023-04-03T02:14:17.085Z,6.00
2023-04-03T02:16:50.889Z,5.99
2023-04-03T02:19:21.191Z,5.96
2023-04-03T02:21:52.181Z,5.92
2023-04-03T02:24:22.479Z,5.89
2023-04-03T02:26:52.380Z,5.87
2023-04-03T02:29:28.030Z,5.84
2023-04-03T02:31:58.318Z,5.81
2023-04-03T02:34:28.503Z,5.78
2023-04-03T02:37:00.152Z,5.75
2023-04-03T02:39:29.497Z,5.72
2023-04-03T02:41:59.469Z,5.65
2023-04-03T02:44:30.643Z,5.57
2023-04-03T02:47:01.701Z,5.54
2023-04-03T02:49:31.607Z,5.50
2023-04-03T02:52:01.554Z,5.46
2023-04-03T02:54:33.744Z,5.46
2023-04-03T02:57:07.190Z,5.45
2023-04-03T02:59:42.970Z,5.40
2023-04-03T03:02:13.901Z,5.36
2023-04-03T03:04:44.519Z,5.31
2023-04-03T03:07:14.573Z,5.26
2023-04-03T03:09:46.285Z,5.21
2023-04-03T03:12:16.108Z,5.16
2023-04-03T03:14:45.532Z,5.15
2023-04-03T03:17:16.115Z,5.12
2023-04-03T03:19:50.163Z,5.10
2023-04-03T03:22:20.295Z,5.08
2023-04-03T03:24:49.975Z,5.04
2023-04-03T03:27:20.262Z,5.00
2023-04-03T03:29:50.269Z,4.95
2023-04-03T03:32:20.791Z,4.89
2023-04-03T03:34:53.063Z,4.87
2023-04-03T03:37:24.066Z,4.83
2023-04-03T03:39:54.115Z,4.82
2023-04-03T03:42:25.201Z,4.81
2023-04-03T03:44:54.924Z,4.80
2023-04-03T03:47:25.689Z,4.79
2023-04-03T03:49:55.137Z,4.79
2023-04-03T03:52:25.660Z,4.79
2023-04-03T03:54:56.534Z,4.81
2023-04-03T03:57:28.461Z,4.80
2023-04-03T03:59:58.243Z,4.84
2023-04-03T04:02:28.522Z,4.87
2023-04-03T04:04:58.336Z,4.85
2023-04-03T04:07:29.884Z,4.83
2023-04-03T04:10:01.249Z,4.84
2023-04-03T04:12:30.525Z,4.83
2023-04-03T04:15:05.779Z,4.85
2023-04-03T04:17:38.038Z,4.87
2023-04-03T04:20:18.787Z,4.91
2023-04-03T04:22:50.491Z,4.94
2023-04-03T04:25:21.067Z,5.00
2023-04-03T04:27:51.004Z,5.01
2023-04-03T04:30:21.057Z,5.00
2023-04-03T04:32:52.563Z,5.01
2023-04-03T04:35:23.604Z,5.01
2023-04-03T04:37:53.951Z,5.03
2023-04-03T04:40:24.989Z,5.04
2023-04-03T04:42:55.113Z,5.04
2023-04-03T04:45:26.464Z,5.07
2023-04-03T04:48:00.311Z,5.12
2023-04-03T04:50:30.958Z,5.14
2023-04-03T04:53:00.415Z,5.15
2023-04-03T04:55:29.909Z,5.16
2023-04-03T04:57:59.565Z,5.17
2023-04-03T05:00:28.867Z,5.18
2023-04-03T05:02:59.481Z,5.19
2023-04-03T05:05:29.553Z,5.22
2023-04-03T05:07:59.986Z,5.20
2023-04-03T05:10:30.170Z,5.16
2023-04-03T05:13:00.018Z,5.16
2023-04-03T05:15:30.003Z,5.17
2023-04-03T05:18:01.722Z,5.21
2023-04-03T05:20:33.233Z,5.26
2023-04-03T05:23:03.115Z,5.30
2023-04-03T05:25:33.830Z,5.35
2023-04-03T05:28:08.456Z,5.43
2023-04-03T05:30:38.357Z,5.53
2023-04-03T05:33:08.867Z,5.66
2023-04-03T05:35:49.155Z,5.81
2023-04-03T05:38:21.928Z,5.91
2023-04-03T05:40:52.183Z,5.97
2023-04-03T05:43:22.304Z,6.08
2023-04-03T05:45:53.692Z,6.11
2023-04-03T05:48:24.327Z,6.14
2023-04-03T05:50:54.699Z,6.14
2023-04-03T05:53:30.974Z,6.10
2023-04-03T05:56:03.935Z,6.08
2023-04-03T05:58:35.135Z,6.06
2023-04-03T06:01:05.097Z,6.06
2023-04-03T06:03:38.587Z,6.08
2023-04-03T06:06:15.681Z,6.05
2023-04-03T06:08:47.687Z,6.04
2023-04-03T06:11:18.087Z,6.07
2023-04-03T06:13:49.427Z,6.11
2023-04-03T06:16:21.027Z,6.12
2023-04-03T06:18:51.395Z,6.15
2023-04-03T06:21:21.224Z,6.15
2023-04-03T06:23:53.274Z,6.15
2023-04-03T06:26:23.878Z,6.19
2023-04-03T06:28:53.510Z,6.22
2023-04-03T06:31:23.688Z,6.20
2023-04-03T06:33:54.061Z,6.18
2023-04-03T06:36:24.457Z,6.20
2023-04-03T06:38:53.869Z,6.24
2023-04-03T06:41:23.474Z,6.26
2023-04-03T06:43:53.304Z,6.23
2023-04-03T06:46:26.124Z,6.26
2023-04-03T06:48:56.494Z,6.30
2023-04-03T06:51:28.910Z,6.34
2023-04-03T06:54:00.947Z,6.33
2023-04-03T06:56:30.483Z,6.38
2023-04-03T06:59:01.174Z,6.41
2023-04-03T07:01:32.192Z,6.47
2023-04-03T07:04:02.571Z,6.53
2023-04-03T07:06:35.073Z,6.58
2023-04-03T07:09:06.770Z,6.58
2023-04-03T07:11:37.810Z,6.65
2023-04-03T07:14:09.561Z,6.74
2023-04-03T07:16:42.898Z,6.79
2023-04-03T07:19:13.339Z,6.86
2023-04-03T07:21:43.504Z,6.91
2023-04-03T07:24:16.203Z,6.90
2023-04-03T07:26:46.773Z,6.92
2023-04-03T07:29:16.474Z,6.90
2023-04-03T07:31:48.450Z,6.87
2023-04-03T07:34:29.189Z,6.87
2023-04-03T07:37:01.511Z,6.94
2023-04-03T07:39:33.714Z,7.00
2023-04-03T07:42:03.752Z,7.05
2023-04-03T07:44:34.140Z,7.08
2023-04-03T07:47:04.052Z,7.13
2023-04-03T07:49:34.788Z,7.11
2023-04-03T07:52:14.196Z,7.08
2023-04-03T07:55:09.800Z,7.12
2023-04-03T07:57:39.899Z,7.15
2023-04-03T08:00:11.419Z,7.17
2023-04-03T08:02:46.138Z,7.21
2023-04-03T08:05:19.654Z,7.25
2023-04-03T08:07:50.384Z,7.34
2023-04-03T08:10:20.032Z,7.46
2023-04-03T08:12:50.376Z,7.58
2023-04-03T08:15:19.803Z,7.67
2023-04-03T08:17:49.204Z,7.81
2023-04-03T08:20:21.354Z,7.87
2023-04-03T08:22:50.950Z,7.93
2023-04-03T08:25:26.554Z,7.95
2023-04-03T08:27:57.366Z,8.02
2023-04-03T08:30:30.158Z,8.10
2023-04-03T08:33:03.979Z,8.16
2023-04-03T08:35:43.593Z,8.16
2023-04-03T08:38:16.545Z,8.25
2023-04-03T08:40:47.004Z,8.33
2023-04-03T08:43:37.386Z,8.37
2023-04-03T08:46:13.945Z,8.51
2023-04-03T08:48:45.332Z,8.72
2023-04-03T08:51:22.014Z,8.90
2023-04-03T08:54:10.832Z,8.99
2023-04-03T08:56:42.548Z,9.09
2023-04-03T08:59:23.166Z,9.15
2023-04-03T09:01:55.818Z,9.18
2023-04-03T09:04:29.701Z,9.30
2023-04-03T09:07:10.511Z,9.39
2023-04-03T09:09:52.457Z,9.54
2023-04-03T09:12:34.545Z,9.66
2023-04-03T09:15:27.848Z,9.82
2023-04-03T09:18:22.254Z,9.97
2023-04-03T09:21:34.949Z,9.95
2023-04-03T09:24:08.913Z,9.88
2023-04-03T09:26:53.102Z,9.82
2023-04-03T09:29:25.394Z,9.65
2023-04-03T09:31:58.485Z,9.49
2023-04-03T09:34:33.518Z,9.27
2023-04-03T09:37:10.673Z,9.22
2023-04-03T09:39:52.884Z,9.23
2023-04-03T09:42:27.906Z,9.19
2023-04-03T09:45:03.677Z,9.14
2023-04-03T09:47:37.963Z,9.14
2023-04-03T09:50:14.437Z,9.12
2023-04-03T09:52:47.952Z,9.05
2023-04-03T09:55:29.568Z,9.06
2023-04-03T09:58:05.012Z,9.00
2023-04-03T10:00:44.902Z,8.98
2023-04-03T10:03:49.312Z,8.96
2023-04-03T10:06:25.795Z,8.94
2023-04-03T10:09:07.037Z,8.93
2023-04-03T10:11:37.303Z,9.01
2023-04-03T10:14:18.972Z,9.08
2023-04-03T10:16:57.559Z,9.07
2023-04-03T10:19:45.953Z,8.96
2023-04-03T10:22:27.893Z,8.86
2023-04-03T10:25:24.838Z,8.73
2023-04-03T10:28:09.084Z,8.71
2023-04-03T10:31:03.493Z,8.81
2023-04-03T10:33:56.415Z,8.93
2023-04-03T10:36:46.649Z,9.05
2023-04-03T10:39:32.416Z,9.08
2023-04-03T10:42:35.958Z,9.09
2023-04-03T10:45:32.453Z,9.10
2023-04-03T10:48:22.938Z,9.22
2023-04-03T10:51:03.478Z,9.32
2023-04-03T10:54:06.702Z,9.27
2023-04-03T10:56:58.030Z,9.17
2023-04-03T10:59:38.796Z,9.09
2023-04-03T11:02:17.972Z,9.03
2023-04-03T11:05:04.199Z,8.98
2023-04-03T11:07:47.760Z,8.98
2023-04-03T11:10:43.825Z,8.96
2023-04-03T11:13:26.771Z,8.91
2023-04-03T11:15:58.695Z,8.84
2023-04-03T11:19:03.500Z,8.83
2023-04-03T11:21:43.726Z,8.90
2023-04-03T11:24:33.963Z,8.98
2023-04-03T11:27:06.616Z,8.94
2023-04-03T11:29:42.376Z,8.94
2023-04-03T11:32:26.982Z,8.94
2023-04-03T11:35:01.630Z,8.91
2023-04-03T11:37:41.651Z,8.86
2023-04-03T11:40:19.650Z,8.83
2023-04-03T11:42:56.931Z,8.78
2023-04-03T11:45:26.648Z,8.72
2023-04-03T11:47:57.728Z,8.60
2023-04-03T11:50:36.934Z,8.51
2023-04-03T11:53:09.566Z,8.48
2023-04-03T11:55:55.391Z,8.46
2023-04-03T11:58:31.884Z,8.38
2023-04-03T12:01:43.214Z,8.28
2023-04-03T12:04:18.410Z,8.23
2023-04-03T12:06:48.978Z,8.15
2023-04-03T12:09:35.115Z,8.12
2023-04-03T12:12:32.532Z,8.09
2023-04-03T12:15:50.996Z,8.06
2023-04-03T12:18:46.238Z,8.01
2023-04-03T12:21:20.611Z,7.99
2023-04-03T12:24:25.425Z,7.98
2023-04-03T12:27:04.819Z,7.99
2023-04-03T12:29:49.225Z,8.00
2023-04-03T12:32:37.977Z,8.02
2023-04-03T12:35:26.826Z,7.98
2023-04-03T12:38:35.859Z,7.96
2023-04-03T12:41:20.597Z,7.91
2023-04-03T12:44:18.317Z,7.90
2023-04-03T12:46:52.023Z,7.85
2023-04-03T12:49:30.785Z,7.82
2023-04-03T12:52:02.085Z,7.85
2023-04-03T12:54:45.156Z,7.88
2023-04-03T12:57:22.151Z,7.93
2023-04-03T12:59:53.080Z,7.97
2023-04-03T13:02:38.855Z,8.01
2023-04-03T13:05:11.977Z,8.03
2023-04-03T13:07:44.821Z,8.10
2023-04-03T13:10:18.873Z,8.15
2023-04-03T13:12:55.063Z,8.19
2023-04-03T13:15:32.077Z,8.21
2023-04-03T13:18:03.307Z,8.27
2023-04-03T13:20:37.265Z,8.32
2023-04-03T13:23:10.748Z,8.38
2023-04-03T13:25:50.775Z,8.40
2023-04-03T13:28:25.059Z,8.39
2023-04-03T13:31:32.635Z,8.36
2023-04-03T13:34:12.533Z,8.36
2023-04-03T13:36:54.971Z,8.39
2023-04-03T13:39:30.390Z,8.43
2023-04-03T13:42:04.133Z,8.45
2023-04-03T13:44:41.270Z,8.42
2023-04-03T13:47:11.705Z,8.40
2023-04-03T13:49:44.675Z,8.34
2023-04-03T13:52:28.633Z,8.29
2023-04-03T13:55:25.201Z,8.24
2023-04-03T13:58:04.737Z,8.18
2023-04-03T14:00:33.849Z,8.15
2023-04-03T14:03:23.671Z,8.17
2023-04-03T14:05:54.931Z,8.17
2023-04-03T14:08:32.605Z,8.19
2023-04-03T14:11:19.426Z,8.16
2023-04-03T14:13:51.939Z,8.14
2023-04-03T14:16:23.615Z,8.11
2023-04-03T14:18:54.371Z,8.07
2023-04-03T14:21:24.756Z,8.07
2023-04-03T14:23:55.637Z,8.10
2023-04-03T14:26:28.584Z,8.14
2023-04-03T14:28:58.848Z,8.18
2023-04-03T14:31:28.944Z,8.20
2023-04-03T14:34:01.821Z,8.22
2023-04-03T14:36:33.987Z,8.24
2023-04-03T14:39:10.360Z,8.26
2023-04-03T14:41:43.560Z,8.30
2023-04-03T14:44:16.435Z,8.33
2023-04-03T14:46:56.341Z,8.36
2023-04-03T14:49:30.634Z,8.39
2023-04-03T14:52:00.251Z,8.37
2023-04-03T14:54:30.643Z,8.34
2023-04-03T14:57:02.274Z,8.34
2023-04-03T14:59:33.717Z,8.35
2023-04-03T15:02:03.427Z,8.34
2023-04-03T15:04:36.648Z,8.30
2023-04-03T15:07:05.999Z,8.30
2023-04-03T15:09:38.831Z,8.31
2023-04-03T15:12:11.446Z,8.28
2023-04-03T15:14:52.449Z,8.26
2023-04-03T15:17:25.464Z,8.23
2023-04-03T15:19:55.537Z,8.19
2023-04-03T15:22:25.273Z,8.17
2023-04-03T15:24:54.508Z,8.15
2023-04-03T15:27:24.131Z,8.14
2023-04-03T15:29:54.848Z,8.14
2023-04-03T15:32:24.766Z,8.15
2023-04-03T15:34:56.854Z,8.15
2023-04-03T15:37:26.625Z,8.15
2023-04-03T15:39:56.870Z,8.14
2023-04-03T15:42:26.770Z,8.16
2023-04-03T15:44:57.464Z,8.17
2023-04-03T15:47:28.406Z,8.18
2023-04-03T15:49:58.216Z,8.18
2023-04-03T15:52:28.369Z,8.17
2023-04-03T15:54:58.315Z,8.16
2023-04-03T15:57:28.325Z,8.14
2023-04-03T15:59:58.646Z,8.14
2023-04-03T16:02:29.076Z,8.15
2023-04-03T16:04:59.306Z,8.11
2023-04-03T16:07:28.854Z,8.10
2023-04-03T16:09:59.220Z,8.08
2023-04-03T16:12:28.503Z,8.08
2023-04-03T16:14:58.181Z,8.11
2023-04-03T16:17:29.315Z,8.12
2023-04-03T16:20:01.283Z,8.14
2023-04-03T16:22:31.967Z,8.17
2023-04-03T16:25:01.347Z,8.15
2023-04-03T16:27:32.392Z,8.15
2023-04-03T16:30:03.100Z,8.14
2023-04-03T16:32:33.642Z,8.11
2023-04-03T16:35:03.334Z,8.10
2023-04-03T16:37:33.491Z,8.10
2023-04-03T16:40:07.295Z,8.09
2023-04-03T16:42:38.014Z,8.10
2023-04-03T16:45:09.518Z,8.10
2023-04-03T16:47:39.116Z,8.10
2023-04-03T16:50:10.159Z,8.09
2023-04-03T16:52:41.695Z,8.09
2023-04-03T16:55:11.531Z,8.07
2023-04-03T16:57:42.945Z,8.06
2023-04-03T17:00:13.805Z,8.02
2023-04-03T17:02:43.494Z,8.00
2023-04-03T17:05:13.158Z,7.97
2023-04-03T17:07:42.861Z,7.93
2023-04-03T17:10:15.928Z,7.89
2023-04-03T17:12:45.877Z,7.83
2023-04-03T17:15:16.615Z,7.80
2023-04-03T17:17:46.369Z,7.75
2023-04-03T17:20:16.579Z,7.71
2023-04-03T17:22:45.996Z,7.68
2023-04-03T17:25:16.469Z,7.65
2023-04-03T17:27:46.139Z,7.62
2023-04-03T17:30:16.884Z,7.60
2023-04-03T17:32:47.766Z,7.54
2023-04-03T17:35:18.822Z,7.50
2023-04-03T17:37:53.322Z,7.44
2023-04-03T17:40:22.728Z,7.36
2023-04-03T17:42:53.572Z,7.32
2023-04-03T17:45:24.752Z,7.29
2023-04-03T17:47:55.371Z,7.25
2023-04-03T17:50:24.919Z,7.18
2023-04-03T17:52:54.701Z,7.13
2023-04-03T17:55:27.873Z,7.09
2023-04-03T17:57:57.826Z,7.06
2023-04-03T18:00:28.717Z,7.02
2023-04-03T18:03:16.717Z,6.96
2023-04-03T18:06:07.718Z,6.89
2023-04-03T18:08:48.394Z,6.82
2023-04-03T18:11:22.267Z,6.75
2023-04-03T18:13:53.271Z,6.69
2023-04-03T18:16:22.753Z,6.63
2023-04-03T18:19:02.553Z,6.60
2023-04-03T18:21:46.365Z,6.54
2023-04-03T18:24:19.008Z,6.51
2023-04-03T18:26:57.939Z,6.47
2023-04-03T18:29:38.826Z,6.43
2023-04-03T18:32:10.946Z,6.41
2023-04-03T18:34:40.954Z,6.38
2023-04-03T18:37:11.669Z,6.36
2023-04-03T18:39:42.068Z,6.31
2023-04-03T18:42:17.639Z,6.28
2023-04-03T18:44:54.080Z,6.23
2023-04-03T18:47:23.475Z,6.20
2023-04-03T18:49:54.112Z,6.17
2023-04-03T18:52:25.863Z,6.17
2023-04-03T18:54:57.480Z,6.15
2023-04-03T18:57:29.113Z,6.13
2023-04-03T18:59:58.618Z,6.10
2023-04-03T19:02:30.503Z,6.06
2023-04-03T19:05:02.081Z,6.03
2023-04-03T19:07:32.875Z,6.00
2023-04-03T19:10:02.848Z,5.96
2023-04-03T19:12:32.917Z,5.93
2023-04-03T19:15:04.531Z,5.92
2023-04-03T19:17:33.844Z,5.87
2023-04-03T19:20:05.188Z,5.83
2023-04-03T19:22:36.084Z,5.78
2023-04-03T19:25:08.244Z,5.74
2023-04-03T19:27:38.796Z,5.70
2023-04-03T19:30:12.445Z,5.62
2023-04-03T19:32:42.611Z,5.53
2023-04-03T19:35:12.443Z,5.49
2023-04-03T19:37:43.576Z,5.44
2023-04-03T19:40:14.031Z,5.40
2023-04-03T19:42:43.362Z,5.36
2023-04-03T19:45:16.232Z,5.33
2023-04-03T19:47:47.791Z,5.30
2023-04-03T19:50:17.873Z,5.29
2023-04-03T19:52:48.553Z,5.27
2023-04-03T19:55:18.806Z,5.21
2023-04-03T19:57:48.474Z,5.18
2023-04-03T20:00:21.025Z,5.15
2023-04-03T20:02:51.074Z,5.13
2023-04-03T20:05:22.024Z,5.06
2023-04-03T20:07:51.956Z,5.03
2023-04-03T20:10:22.091Z,5.01
2023-04-03T20:12:51.830Z,4.96
2023-04-03T20:15:21.843Z,4.92
2023-04-03T20:17:51.380Z,4.87
2023-04-03T20:20:20.925Z,4.84
2023-04-03T20:22:53.194Z,4.83
2023-04-03T20:25:43.725Z,4.82
2023-04-03T20:28:16.185Z,4.78
2023-04-03T20:30:48.554Z,4.76
2023-04-03T20:33:19.633Z,4.72
2023-04-03T20:35:51.919Z,4.70
2023-04-03T20:38:23.679Z,4.68
2023-04-03T20:40:55.094Z,4.67
2023-04-03T20:43:25.806Z,4.66
2023-04-03T20:45:55.073Z,4.66
2023-04-03T20:48:24.298Z,4.67
2023-04-03T20:50:53.825Z,4.69
2023-04-03T20:53:23.543Z,4.68
2023-04-03T20:56:00.753Z,4.66
2023-04-03T20:58:33.716Z,4.64
2023-04-03T21:01:03.461Z,4.64
2023-04-03T21:03:34.410Z,4.64
2023-04-03T21:06:06.758Z,4.64
2023-04-03T21:09:13.655Z,4.60
2023-04-03T21:12:20.914Z,4.54
2023-04-03T21:15:28.819Z,4.50
2023-04-03T21:18:09.767Z,4.42
2023-04-03T21:20:40.748Z,4.39
2023-04-03T21:23:10.612Z,4.35
2023-04-03T21:25:41.104Z,4.33
2023-04-03T21:28:10.608Z,4.32
2023-04-03T21:30:40.264Z,4.31
2023-04-03T21:33:12.894Z,4.29
2023-04-03T21:35:42.673Z,4.29
2023-04-03T21:38:12.725Z,4.26
2023-04-03T21:40:47.515Z,4.21
2023-04-03T21:43:17.364Z,4.18
2023-04-03T21:45:48.495Z,4.12
2023-04-03T21:48:20.647Z,4.06
2023-04-03T21:50:54.669Z,4.02
2023-04-03T21:53:24.594Z,3.96
2023-04-03T21:58:50.483Z,3.92
2023-04-03T22:01:21.487Z,3.88
2023-04-03T22:03:51.251Z,3.86
2023-04-03T22:06:20.263Z,3.85
2023-04-03T22:08:49.800Z,3.86
2023-04-03T22:11:21.796Z,3.87
2023-04-03T22:13:55.383Z,3.85
2023-04-03T22:16:25.842Z,3.86
2023-04-03T22:18:57.524Z,3.85
2023-04-03T22:21:27.485Z,3.83
2023-04-03T22:23:58.683Z,3.81
2023-04-03T22:26:29.173Z,3.74
2023-04-03T22:28:58.855Z,3.70
2023-04-03T22:31:28.208Z,3.67
2023-04-03T22:33:58.280Z,3.63
2023-04-03T22:36:28.111Z,3.62
2023-04-03T22:38:58.107Z,3.59
2023-04-03T22:41:27.354Z,3.56
2023-04-03T22:43:58.217Z,3.55
2023-04-03T22:46:28.664Z,3.54
2023-04-03T22:48:58.052Z,3.49
2023-04-03T22:51:28.478Z,3.51
2023-04-03T22:53:58.848Z,3.50
2023-04-03T22:56:28.775Z,3.47
2023-04-03T22:59:00.205Z,3.44
2023-04-03T23:01:31.117Z,3.41
2023-04-03T23:04:01.304Z,3.37
2023-04-03T23:06:30.450Z,3.30
2023-04-03T23:09:03.201Z,3.28
2023-04-03T23:11:32.523Z,3.24
2023-04-03T23:14:03.563Z,3.19
2023-04-03T23:16:33.529Z,3.14
2023-04-03T23:19:04.828Z,3.10
2023-04-03T23:21:34.819Z,3.05
2023-04-03T23:24:04.760Z,3.02
2023-04-03T23:26:34.637Z,2.99
2023-04-03T23:29:06.010Z,2.95
2023-04-03T23:31:35.891Z,2.90
2023-04-03T23:34:06.851Z,2.88
2023-04-03T23:36:38.681Z,2.88
2023-04-03T23:39:09.319Z,2.87
2023-04-03T23:41:38.828Z,2.83
2023-04-03T23:44:08.802Z,2.80
2023-04-03T23:46:39.645Z,2.78
2023-04-03T23:49:09.983Z,2.70
2023-04-03T23:51:39.923Z,2.65
2023-04-03T23:54:09.672Z,2.57
2023-04-03T23:56:40.123Z,2.54
2023-04-03T23:59:10.735Z,2.44
